EST,Max TemperatureF,Mean TemperatureF,Min TemperatureF,Max Dew PointF,MeanDew PointF,Min DewpointF,Max Humidity, Mean Humidity, Min Humidity, Max Sea Level PressureIn, Mean Sea Level PressureIn, Min Sea Level PressureIn, Max VisibilityMiles, Mean VisibilityMiles, Min VisibilityMiles, Max Wind SpeedMPH, Mean Wind SpeedMPH, Max Gust SpeedMPH,PrecipitationIn, CloudCover, Events, WindDirDegrees
2011-12-1,47,37,26,32,27,21,85,72,58,30.30,30.24,30.09,10,10,10,9,3,10,0.00,2,,300
2011-12-2,41,34,27,34,31,24,92,78,64,30.57,30.37,30.24,10,9,5,17,5,22,0.04,8,Rain-Snow,300
2011-12-3,45,35,25,31,25,21,92,69,45,30.64,30.56,30.43,10,9,2,14,5,18,0.00,3,Fog,158
2011-12-4,58,48,37,35,32,25,70,55,39,30.42,30.29,30.17,10,10,10,24,11,33,0.00,4,,195
2011-12-5,55,51,47,46,40,35,93,75,56,30.25,30.18,30.08,10,9,4,12,3,15,0.19,8,Rain,155
2011-12-6,48,43,38,45,39,35,93,89,85,30.07,30.04,30.00,10,6,2,12,6,13,0.17,8,Fog-Rain,316
2011-12-7,39,37,34,36,34,29,92,84,75,29.98,29.86,29.77,10,6,1,13,5,15,0.06,8,Rain-Snow,352
2011-12-8,41,37,32,30,26,18,89,65,40,30.21,30.00,29.79,10,6,0,25,13,31,0.04,7,Snow,285
2011-12-9,41,37,33,30,27,22,89,71,52,30.24,30.20,30.13,10,8,1,16,10,21,T,8,Snow,222
2011-12-10,37,31,25,29,16,7,72,53,33,30.48,30.35,30.20,10,9,5,23,13,28,T,4,Snow,288
2011-12-11,40,31,22,19,14,11,65,50,35,30.58,30.52,30.48,10,10,10,14,7,20,0.00,2,,214
2011-12-12,48,36,24,19,16,9,75,48,21,30.51,30.47,30.42,10,10,10,8,2,10,0.00,1,,134
2011-12-13,44,33,22,30,24,17,88,69,49,30.44,30.41,30.38,10,9,6,12,1,13,0.00,5,Fog,296
2011-12-14,52,48,43,37,31,26,85,64,42,30.38,30.27,30.06,10,9,4,22,5,29,T,7,Rain,158
2011-12-15,57,51,45,48,42,36,83,71,59,30.04,29.75,29.56,10,9,4,32,15,45,0.37,8,Rain,230
2011-12-16,50,44,37,38,29,26,76,66,56,30.14,30.06,29.73,10,10,3,37,18,47,0.09,8,Rain-Snow,290
2011-12-17,37,26,14,31,23,8,89,72,54,30.27,30.16,30.09,10,6,0,20,7,24,0.08,7,Snow,346
2011-12-18,32,21,10,20,8,1,83,57,31,30.30,30.24,30.14,10,10,10,12,4,14,0.00,4,,139
2011-12-19,49,40,30,39,32,21,69,58,46,30.12,29.93,29.82,10,9,3,22,11,29,0.08,8,Rain,261
2011-12-20,41,34,26,36,23,17,79,63,47,30.25,30.12,29.97,10,10,9,16,4,18,T,7,Rain-Snow,35
2011-12-21,54,43,32,46,40,25,96,83,69,30.00,29.76,29.58,10,5,2,30,6,38,0.43,8,Rain,128
2011-12-22,47,44,41,41,39,36,89,80,71,30.07,30.02,29.80,10,9,3,25,7,37,0.13,8,Rain,295
2011-12-23,41,32,23,37,28,18,92,81,69,30.30,30.13,29.95,10,6,0,23,9,28,0.33,8,Rain-Snow,335
2011-12-24,26,22,18,16,14,10,81,72,62,30.49,30.41,30.29,10,10,9,10,4,13,T,6,Snow,45
2011-12-25,43,32,21,34,25,16,85,69,53,30.28,30.01,29.87,10,10,7,22,9,26,T,7,Rain-Snow,223
2011-12-26,39,34,28,33,27,22,92,76,59,30.25,30.13,29.90,10,9,4,20,5,26,0.05,6,Rain-Snow,299
2011-12-27,44,36,28,37,31,22,92,71,49,30.05,29.56,29.25,10,9,5,18,8,24,0.26,7,Rain,135
2011-12-28,41,31,20,36,21,12,86,74,62,29.93,29.65,29.29,10,4,0,33,19,44,0.09,8,Rain-Snow,296
2011-12-29,29,24,18,19,14,11,80,65,50,30.01,29.96,29.90,10,6,2,17,9,18,0.01,8,Snow,290
2011-12-30,39,32,25,29,25,19,88,76,64,29.94,29.89,29.81,10,8,2,13,7,18,0.04,8,Rain-Snow,105
2011-12-31,45,40,35,40,36,29,92,81,70,30.07,29.89,29.77,10,7,4,15,5,21,0.02,8,Fog-Rain-Snow,4